This is the latest recevied weather packets stored in our database for station/object PY2KO-3. If no packets are shown the sender has not sent any weather packets the latest 10 day(s).
| Time | Temp. | Humidity | Pressure | Rain* | Wind** | Luminosity | Snow |
|---|---|---|---|---|---|---|---|
| 1777897150 | 20° C | 74% | 1024.5 hPa | - | - | - | - |
| 1777896263 | 18.89° C | 77% | 1024.6 hPa | - | - | - | - |
| 1777895352 | 18.33° C | 78% | 1024.6 hPa | - | - | - | - |
| 1777894450 | 20° C | 76% | 1024.1 hPa | - | - | - | - |
| 1777893550 | 18.89° C | 78% | 1024.2 hPa | - | - | - | - |
| 1777892650 | 17.78° C | 85% | 1024.4 hPa | - | - | - | - |
| 1777891750 | 17.22° C | 88% | 1024.7 hPa | - | - | - | - |
| 1777890850 | 16.11° C | 91% | 1024.9 hPa | - | - | - | - |
| 1777889950 | 16.11° C | 91% | 1024.8 hPa | - | - | - | - |
| 1777889050 | 15.56° C | 92% | 1024.9 hPa | - | - | - | - |
| 1777888150 | 15.56° C | 92% | 1024.7 hPa | - | - | - | - |
| 1777887252 | 15° C | 93% | 1024.4 hPa | - | - | - | - |
| 1777886353 | 15° C | 92% | 1024.4 hPa | - | - | - | - |
| 1777885450 | 15° C | 91% | 1024.3 hPa | - | - | - | - |
| 1777884550 | 15° C | 92% | 1023.8 hPa | - | - | - | - |
| 1777883650 | 14.44° C | 92% | 1023.7 hPa | - | - | - | - |
| 1777882750 | 14.44° C | 92% | 1023.9 hPa | - | - | - | - |
| 1777881850 | 14.44° C | 92% | 1024 hPa | - | - | - | - |
| 1777880950 | 14.44° C | 91% | 1024.2 hPa | - | - | - | - |
| 1777880050 | 15° C | 90% | 1024.3 hPa | - | - | - | - |
| 1777879150 | 15° C | 91% | 1024.3 hPa | - | - | - | - |
| 1777878250 | 15° C | 91% | 1024.1 hPa | - | - | - | - |
| 1777877350 | 15° C | 91% | 1024.3 hPa | - | - | - | - |
| 1777876450 | 15.56° C | 90% | 1024.6 hPa | - | - | - | - |
| 1777875550 | 15.56° C | 90% | 1024.5 hPa | - | - | - | - |
* Rain since midnight (hover to see other rain measurements)
** Current wind speed in m/s (hover to see current wind gust speed)